Time;durP1;ratioP1;P1;durP2;ratioP2;P2;SDS_P1;SDS_P2;PMS_P1;PMS_P2;Temp;Humidity;BMP_temperature;BMP_pressure;BME280_temperature;BME280_humidity;BME280_pressure;Samples;Min_cycle;Max_cycle;Signal;HPM_P1;HPM_P2
2022/12/16 00:01:26;;;;;;;0.30;0.30;;;-3.10;99.90;;;-3.48;90.85;98994.53;4861548;29;20221;-74
2022/12/16 00:03:56;;;;;;;0.40;0.40;;;-3.10;99.90;;;-3.51;90.50;98986.66;4875758;29;20228;-74
2022/12/16 00:06:29;;;;;;;0.30;0.30;;;-3.20;99.90;;;-3.50;90.49;98988.41;4874460;29;20300;-74
2022/12/16 00:08:56;;;;;;;0.30;0.30;;;-3.20;99.90;;;-3.53;90.61;98991.75;4875029;29;20772;-75
2022/12/16 00:11:23;;;;;;;0.30;0.30;;;-3.20;99.90;;;-3.53;90.42;98989.16;4871345;29;20251;-74
2022/12/16 00:13:50;;;;;;;0.30;0.30;;;-3.20;99.90;;;-3.58;90.41;98981.22;4869903;29;20296;-74
2022/12/16 00:16:20;;;;;;;0.43;0.43;;;-3.20;99.90;;;-3.61;90.53;98985.38;4871249;29;20233;-74
2022/12/16 00:18:48;;;;;;;1.05;1.05;;;-3.30;99.90;;;-3.63;90.39;98993.06;4874349;29;20232;-74
2022/12/16 00:21:18;;;;;;;0.20;0.20;;;-3.30;99.90;;;-3.61;90.35;99006.94;4873154;29;20232;-74
2022/12/16 00:23:46;;;;;;;0.30;0.30;;;-3.30;99.90;;;-3.60;90.66;99007.81;4868703;29;20240;-74
2022/12/16 00:26:13;;;;;;;0.30;0.30;;;-3.30;99.90;;;-3.58;90.35;99009.66;4870580;29;20326;-74
2022/12/16 00:28:42;;;;;;;0.70;0.70;;;-3.20;99.90;;;-3.52;90.15;99002.97;4850733;29;20237;-74
2022/12/16 00:31:10;;;;;;;0.30;0.30;;;-3.20;99.90;;;-3.56;90.18;99001.97;4857663;29;20244;-75
2022/12/16 00:33:38;;;;;;;0.30;0.30;;;-2.50;99.90;;;-3.55;89.94;98999.44;4873633;29;20236;-75
2022/12/16 00:36:05;;;;;;;0.35;0.35;;;-3.20;99.90;;;-3.56;90.09;99004.53;4871829;29;20293;-74
2022/12/16 00:38:32;;;;;;;0.30;0.30;;;-3.20;99.90;;;-3.54;90.03;99005.50;4871602;29;20281;-75
2022/12/16 00:41:00;;;;;;;0.30;0.30;;;-2.30;99.90;;;-3.56;89.84;99008.00;4858712;29;20734;-74
2022/12/16 00:43:27;;;;;;;0.30;0.30;;;-3.20;99.90;;;-3.55;89.65;99006.31;4874457;29;20260;-75
2022/12/16 00:45:54;;;;;;;0.40;0.40;;;-3.20;99.90;;;-3.52;89.38;99005.56;4874398;29;20293;-75
2022/12/16 00:48:22;;;;;;;0.28;0.28;;;-3.20;99.90;;;-3.52;89.45;99005.56;4872592;29;20225;-75
2022/12/16 00:50:52;;;;;;;0.30;0.30;;;-2.50;99.90;;;-3.54;89.43;99008.06;4870727;29;20267;-74
2022/12/16 00:53:23;;;;;;;0.30;0.30;;;-3.20;99.90;;;-3.50;88.96;99001.34;4873585;29;20256;-74
2022/12/16 00:56:00;;;;;;;0.30;0.30;;;-3.00;99.90;;;-3.56;89.24;98999.38;4872529;29;20242;-74
2022/12/16 00:58:27;;;;;;;0.30;0.30;;;-3.20;99.90;;;-3.58;89.37;99014.81;4876019;29;20776;-75
2022/12/16 01:00:54;;;;;;;0.30;0.30;;;-3.20;99.90;;;-3.59;89.29;99007.88;4852016;29;20677;-75
2022/12/16 01:03:21;;;;;;;1.17;1.10;;;-3.20;99.90;;;-3.57;89.33;99021.75;4874130;29;20315;-75
2022/12/16 01:05:48;;;;;;;0.55;0.55;;;-3.20;99.90;;;-3.61;89.57;99016.38;4874807;29;20242;-74
2022/12/16 01:08:16;;;;;;;0.20;0.20;;;-3.20;99.90;;;-3.64;89.57;99011.97;4873177;29;20311;-75
2022/12/16 01:10:50;;;;;;;0.20;0.20;;;-3.30;99.90;;;-3.69;89.79;99016.06;4876007;29;20312;-75
2022/12/16 01:13:19;;;;;;;0.20;0.20;;;-3.30;99.90;;;-3.69;89.93;99021.25;4873271;29;20275;-74
2022/12/16 01:15:46;;;;;;;0.30;0.30;;;-3.30;99.90;;;-3.71;89.72;99015.13;4874217;29;20232;-74
2022/12/16 01:18:14;;;;;;;0.30;0.30;;;-3.40;99.90;;;-3.73;89.96;99026.22;4872953;29;20239;-74
2022/12/16 01:20:41;;;;;;;0.30;0.30;;;-3.40;99.90;;;-3.73;89.70;99021.94;4867792;29;20321;-75
2022/12/16 01:23:08;;;;;;;0.30;0.30;;;-3.40;99.90;;;-3.74;89.85;99027.03;4873689;29;20312;-75
2022/12/16 01:25:35;;;;;;;0.30;0.30;;;-3.40;99.90;;;-3.76;89.87;99034.72;4867440;29;20244;-74
2022/12/16 01:28:02;;;;;;;0.50;0.50;;;-3.40;99.90;;;-3.75;89.92;99031.31;4864190;29;20309;-74
2022/12/16 01:30:30;;;;;;;0.30;0.30;;;-3.40;99.90;;;-3.75;90.02;99038.16;4851365;29;20323;-73
2022/12/16 01:32:57;;;;;;;0.30;0.30;;;-3.40;99.90;;;-3.76;89.80;99031.25;4850310;29;20358;-73
2022/12/16 01:35:24;;;;;;;0.32;0.32;;;-3.40;99.90;;;-3.72;89.52;99040.88;4864930;29;20236;-73
2022/12/16 01:38:11;;;;;;;0.30;0.30;;;-3.40;99.90;;;-3.71;89.47;99029.75;4854272;29;20246;-74
2022/12/16 01:40:39;;;;;;;0.40;0.40;;;-3.40;99.90;;;-3.78;89.64;99020.84;4838808;29;20232;-74
2022/12/16 01:43:12;;;;;;;0.30;0.30;;;-3.40;99.90;;;-3.76;89.53;99026.97;4857655;29;20236;-75
2022/12/16 01:45:50;;;;;;;0.20;0.20;;;-3.40;99.90;;;-3.76;89.25;99019.22;4851823;29;20263;-74
2022/12/16 01:49:00;;;;;;;0.30;0.30;;;-3.40;99.90;;;-3.84;89.64;99011.97;4849993;29;20234;-73
2022/12/16 01:51:38;;;;;;;0.20;0.20;;;-3.50;99.90;;;-3.85;89.68;99008.50;4865199;29;20311;-73
2022/12/16 01:54:14;;;;;;;0.20;0.20;;;-3.50;99.90;;;-3.87;89.25;98999.78;4870221;29;20248;-74
2022/12/16 01:56:48;;;;;;;0.40;0.40;;;-3.50;99.90;;;-3.87;89.45;98998.09;4843919;29;20314;-74
2022/12/16 01:59:18;;;;;;;0.30;0.30;;;-3.50;99.90;;;-3.77;88.96;99001.06;4853716;29;20685;-73
2022/12/16 02:01:46;;;;;;;0.30;0.30;;;-3.50;99.90;;;-3.77;88.61;98999.38;4860332;29;20240;-74
2022/12/16 02:04:13;;;;;;;0.30;0.30;;;-3.40;99.90;;;-3.76;88.59;98998.53;4872186;29;20236;-74
2022/12/16 02:06:41;;;;;;;0.20;0.20;;;-3.40;99.90;;;-3.76;88.33;98995.09;4857625;29;20259;-74
2022/12/16 02:09:11;;;;;;;0.30;0.30;;;-3.40;99.90;;;-3.75;88.15;98979.66;4874247;29;20332;-74
2022/12/16 02:12:12;;;;;;;0.30;0.30;;;-3.40;99.90;;;-3.71;87.99;98978.97;4870424;29;20232;-74
2022/12/16 02:15:01;;;;;;;0.30;0.30;;;-3.40;99.90;;;-3.68;87.87;98973.91;4854783;29;20240;-73
2022/12/16 02:18:36;;;;;;;0.30;0.30;;;-3.30;99.90;;;-3.72;87.81;98961.69;4872378;29;20328;-74
2022/12/16 02:21:48;;;;;;;0.93;0.93;;;-3.40;99.90;;;-3.75;87.93;98953.81;4843238;29;20232;-74
2022/12/16 02:24:57;;;;;;;0.30;0.30;;;-3.40;99.90;;;-3.73;87.69;98951.31;4845808;29;20232;-74
2022/12/16 02:27:42;;;;;;;0.30;0.30;;;-3.40;99.90;;;-3.77;87.80;98952.00;4871173;29;20232;-74
2022/12/16 02:30:27;;;;;;;0.30;0.30;;;-3.40;99.90;;;-3.77;87.94;98957.16;4869617;29;20312;-74
2022/12/16 02:33:17;;;;;;;0.30;0.30;;;-3.40;99.90;;;-3.83;88.16;98954.31;4867560;29;20890;-74
2022/12/16 02:36:10;;;;;;;0.28;0.28;;;-3.50;99.90;;;-3.79;87.78;98972.59;4871763;29;20324;-74
2022/12/16 02:38:55;;;;;;;0.38;0.38;;;-3.50;99.90;;;-3.84;88.03;98971.50;4854814;29;20307;-74
2022/12/16 02:42:00;;;;;;;0.30;0.30;;;-3.50;99.90;;;-3.83;88.30;98981.03;4864451;29;20241;-75
2022/12/16 02:44:46;;;;;;;1.95;1.85;;;-3.50;99.90;;;-3.78;88.27;98987.28;4854999;29;20755;-74
2022/12/16 02:47:13;;;;;;;0.40;0.40;;;-3.50;99.90;;;-3.83;88.46;98978.44;4852405;29;20235;-74
2022/12/16 02:49:50;;;;;;;0.30;0.30;;;-3.50;99.90;;;-3.85;88.63;98982.66;4873943;29;20238;-75
2022/12/16 02:52:24;;;;;;;0.30;0.30;;;-3.50;99.90;;;-3.82;88.67;98990.53;4861626;29;20322;-74
2022/12/16 02:55:00;;;;;;;0.40;0.40;;;-3.50;99.90;;;-3.88;88.43;98980.84;4851439;29;20240;-74
2022/12/16 02:57:53;;;;;;;0.30;0.30;;;-3.50;99.90;;;-3.93;88.87;98986.59;4854763;29;20239;-75
2022/12/16 03:00:22;;;;;;;0.40;0.40;;;-3.60;99.90;;;-3.94;88.92;98993.44;4853142;29;20264;-74
2022/12/16 03:02:59;;;;;;;0.30;0.30;;;-3.60;99.90;;;-3.97;89.27;98990.75;4872113;29;20311;-75
2022/12/16 03:05:41;;;;;;;0.30;0.30;;;-3.60;99.90;;;-3.96;89.19;98994.22;4861300;29;20273;-75
2022/12/16 03:08:14;;;;;;;0.30;0.30;;;-3.60;99.90;;;-3.96;89.12;99001.94;4857704;29;20260;-75
2022/12/16 03:10:46;;;;;;;0.30;0.30;;;-3.60;99.90;;;-3.95;88.99;98999.44;4855044;29;20232;-75
2022/12/16 03:13:18;;;;;;;0.40;0.40;;;-2.40;99.90;;;-3.98;89.03;98994.13;4857915;29;20228;-75
2022/12/16 03:15:48;;;;;;;0.30;0.30;;;-3.00;99.90;;;-4.02;89.31;98989.66;4856176;29;20267;-74
2022/12/16 03:18:18;;;;;;;0.30;0.30;;;-3.60;99.90;;;-3.99;88.87;98988.91;4864003;29;20350;-74
2022/12/16 03:20:54;;;;;;;0.30;0.30;;;-3.60;99.90;;;-4.06;89.24;98982.59;4857915;29;20296;-75
2022/12/16 03:23:43;;;;;;;0.35;0.35;;;-3.70;99.90;;;-4.09;89.46;98986.75;4855993;29;20228;-74
2022/12/16 03:26:19;;;;;;;0.30;0.30;;;-3.70;99.90;;;-4.13;89.36;98990.00;4872454;29;20327;-75
2022/12/16 03:28:57;;;;;;;0.30;0.30;;;-3.00;99.90;;;-4.15;89.64;98992.53;4852798;29;20255;-75
2022/12/16 03:32:02;;;;;;;0.43;0.43;;;-3.80;99.90;;;-4.16;89.50;98992.47;4870811;29;20323;-74
2022/12/16 03:34:44;;;;;;;0.30;0.30;;;-3.80;99.90;;;-4.18;89.90;98992.41;4860153;29;20242;-75
2022/12/16 03:37:13;;;;;;;0.30;0.30;;;-3.80;99.90;;;-4.21;89.95;99005.16;4854732;29;20283;-74
2022/12/16 03:39:51;;;;;;;0.30;0.30;;;-3.90;99.90;;;-4.20;90.22;99020.72;4868128;29;20244;-74
2022/12/16 03:42:18;;;;;;;0.30;0.30;;;-3.60;99.90;;;-4.23;90.25;99017.13;4842722;29;20312;-75
2022/12/16 03:44:46;;;;;;;1.55;1.08;;;-3.90;99.90;;;-4.25;90.58;99031.66;4870756;29;20331;-74
2022/12/16 03:47:13;;;;;;;0.30;0.30;;;-3.90;99.90;;;-4.27;90.46;99025.53;4856243;29;20319;-74
2022/12/16 03:49:49;;;;;;;0.30;0.30;;;-3.90;99.90;;;-4.25;90.43;99042.88;4869335;29;20239;-74
2022/12/16 03:52:16;;;;;;;0.30;0.30;;;-3.90;99.90;;;-4.26;90.68;99046.25;4870370;29;20228;-74
2022/12/16 03:54:43;;;;;;;0.38;0.38;;;-3.90;99.90;;;-4.28;90.36;99047.00;4868346;29;20232;-74
2022/12/16 03:57:11;;;;;;;0.30;0.30;;;-3.90;99.90;;;-4.25;90.71;99048.03;4869297;29;20268;-74
2022/12/16 03:59:42;;;;;;;0.30;0.30;;;-3.90;99.90;;;-4.29;90.54;99047.81;4875102;29;20241;-74
2022/12/16 04:02:09;;;;;;;0.30;0.30;;;-3.90;99.90;;;-4.23;90.40;99061.00;4874412;29;20625;-74
2022/12/16 04:04:36;;;;;;;0.30;0.30;;;-3.90;99.90;;;-4.25;90.25;99057.47;4874311;29;20257;-75
2022/12/16 04:07:23;;;;;;;0.30;0.30;;;-3.90;99.90;;;-4.25;90.23;99054.88;4874877;29;20234;-75
2022/12/16 04:09:51;;;;;;;0.65;0.65;;;-3.90;99.90;;;-4.29;90.25;99040.97;4874432;29;20284;-74
2022/12/16 04:26:16;;;;;;;0.30;0.30;;;-4.00;99.90;;;-4.34;90.43;99060.50;4874167;29;20256;-74
2022/12/16 04:28:43;;;;;;;1.85;1.75;;;-4.00;99.90;;;-4.34;90.38;99054.47;4857122;29;20233;-74
2022/12/16 04:31:11;;;;;;;0.40;0.40;;;-4.00;99.90;;;-4.32;90.53;99058.88;4873627;29;20311;-74
